createdAt,value
2022-09-07T00:02:08.349Z,12.35
2022-09-07T00:05:11.859Z,14.32
2022-09-07T00:08:17.210Z,13.23
2022-09-07T00:11:21.595Z,18.63
2022-09-07T00:14:25.276Z,17.23
2022-09-07T00:17:28.727Z,17.88
2022-09-07T00:20:32.422Z,18.88
2022-09-07T00:23:37.360Z,11.55
2022-09-07T00:26:40.888Z,12.77
2022-09-07T00:29:44.694Z,14.43
2022-09-07T00:32:47.893Z,17.13
2022-09-07T00:35:52.247Z,13.15
2022-09-07T00:38:55.949Z,21.75
2022-09-07T00:41:58.980Z,14.73
2022-09-07T00:45:07.930Z,14.30
2022-09-07T00:48:18.789Z,15.35
2022-09-07T00:51:35.180Z,15.32
2022-09-07T00:54:43.540Z,12.93
2022-09-07T00:57:50.581Z,16.57
2022-09-07T01:00:55.774Z,17.53
2022-09-07T01:04:01.780Z,17.98
2022-09-07T01:07:09.385Z,20.70
2022-09-07T01:10:13.656Z,14.40
2022-09-07T01:13:17.801Z,12.13
2022-09-07T01:16:40.632Z,17.80
2022-09-07T01:19:44.835Z,24.02
2022-09-07T01:23:00.686Z,19.85
2022-09-07T01:26:41.608Z,17.13
2022-09-07T01:30:03.183Z,14.77
2022-09-07T01:33:07.365Z,18.30
2022-09-07T01:36:30.039Z,23.10
2022-09-07T01:39:51.406Z,28.27
2022-09-07T01:43:00.901Z,25.25
2022-09-07T01:46:12.838Z,33.97
2022-09-07T01:50:02.795Z,25.50
2022-09-07T01:53:12.629Z,40.67
2022-09-07T01:56:24.287Z,35.50
2022-09-07T01:59:42.335Z,32.78
2022-09-07T02:03:19.179Z,44.50
2022-09-07T02:06:45.311Z,33.30
2022-09-07T02:09:52.027Z,36.72
2022-09-07T02:13:00.312Z,32.15
2022-09-07T02:16:07.515Z,25.85
2022-09-07T02:19:17.789Z,19.27
2022-09-07T02:22:28.988Z,30.53
2022-09-07T02:25:46.217Z,23.00
2022-09-07T02:28:50.402Z,39.53
2022-09-07T02:31:54.641Z,42.75
2022-09-07T02:34:58.624Z,25.37
2022-09-07T02:38:06.344Z,21.87
2022-09-07T02:41:36.265Z,22.00
2022-09-07T02:44:43.139Z,15.13
2022-09-07T02:48:04.662Z,23.98
2022-09-07T02:51:22.147Z,24.33
2022-09-07T02:54:43.386Z,12.30
2022-09-07T02:58:05.093Z,15.02
2022-09-07T03:01:22.356Z,23.73
2022-09-07T03:04:47.458Z,15.68
2022-09-07T03:07:57.227Z,22.43
2022-09-07T03:11:01.068Z,11.47
2022-09-07T03:14:16.929Z,12.25
2022-09-07T03:17:21.528Z,22.00
2022-09-07T03:20:25.415Z,18.42
2022-09-07T03:23:29.432Z,17.10
2022-09-07T03:26:32.941Z,15.93
2022-09-07T03:29:40.184Z,11.50
2022-09-07T03:32:44.828Z,9.93
2022-09-07T03:35:59.224Z,17.83
2022-09-07T03:39:02.996Z,15.47
2022-09-07T03:42:06.496Z,15.50
2022-09-07T03:45:10.908Z,15.65
2022-09-07T03:48:14.268Z,20.35
2022-09-07T03:51:19.154Z,19.55
2022-09-07T03:54:23.683Z,15.07
2022-09-07T03:57:27.041Z,23.30
2022-09-07T04:00:31.262Z,12.90
2022-09-07T04:03:34.899Z,13.82
2022-09-07T04:06:38.380Z,19.27
2022-09-07T04:09:42.077Z,11.13
2022-09-07T04:12:46.193Z,16.73
2022-09-07T04:15:53.362Z,15.50
2022-09-07T04:18:59.587Z,14.15
2022-09-07T04:22:02.748Z,15.20
2022-09-07T04:25:07.032Z,10.10
2022-09-07T04:28:10.755Z,10.37
2022-09-07T04:31:19.823Z,9.02
2022-09-07T04:34:23.683Z,6.05
2022-09-07T04:37:27.168Z,8.68
2022-09-07T04:40:31.093Z,5.93
2022-09-07T04:43:35.938Z,6.10
2022-09-07T04:46:39.723Z,8.70
2022-09-07T04:49:43.841Z,5.90
2022-09-07T04:52:46.869Z,7.10
2022-09-07T04:55:50.207Z,6.67
2022-09-07T04:58:53.459Z,9.93
2022-09-07T05:01:57.591Z,8.10
2022-09-07T05:05:02.850Z,11.82
2022-09-07T05:08:06.797Z,9.25
2022-09-07T05:11:12.266Z,8.20
2022-09-07T05:14:15.784Z,7.50
2022-09-07T05:17:19.798Z,6.32
2022-09-07T05:20:23.923Z,7.53
2022-09-07T05:23:27.769Z,8.27
2022-09-07T05:26:33.930Z,8.60
2022-09-07T05:33:01.509Z,4.95
2022-09-07T05:36:07.263Z,6.15
2022-09-07T05:39:11.314Z,6.55
2022-09-07T05:42:15.251Z,9.37
2022-09-07T05:45:18.937Z,7.70
2022-09-07T05:48:23.112Z,7.40
2022-09-07T05:51:26.163Z,5.90
2022-09-07T05:54:30.007Z,5.13
2022-09-07T05:57:32.933Z,5.47
2022-09-07T06:00:36.361Z,9.07
2022-09-07T06:03:41.912Z,14.38
2022-09-07T06:06:54.598Z,7.22
2022-09-07T06:13:32.692Z,17.77
2022-09-07T06:16:36.135Z,9.33
2022-09-07T06:19:39.342Z,12.88
2022-09-07T06:22:42.640Z,16.35
2022-09-07T06:25:50.350Z,18.65
2022-09-07T06:28:57.746Z,7.70
2022-09-07T06:35:24.892Z,13.65
2022-09-07T06:38:38.129Z,14.18
2022-09-07T06:45:07.597Z,8.23
2022-09-07T06:48:11.431Z,8.97
2022-09-07T06:51:19.457Z,12.98
2022-09-07T06:57:46.849Z,8.57
2022-09-07T07:00:50.768Z,6.40
2022-09-07T07:03:54.925Z,7.67
2022-09-07T07:06:58.514Z,6.93
2022-09-07T07:10:02.257Z,8.13
2022-09-07T07:13:06.781Z,21.65
2022-09-07T07:16:12.952Z,7.13
2022-09-07T07:19:17.086Z,9.37
2022-09-07T07:25:44.616Z,6.38
2022-09-07T07:32:02.846Z,9.23
2022-09-07T07:35:07.948Z,8.07
2022-09-07T07:48:21.798Z,9.73
2022-09-07T07:51:25.647Z,13.30
2022-09-07T07:54:29.226Z,9.82
2022-09-07T07:57:33.330Z,7.93
2022-09-07T08:00:51.011Z,9.13
2022-09-07T08:03:56.827Z,7.33
2022-09-07T08:07:00.508Z,15.60
2022-09-07T08:10:04.048Z,8.38
2022-09-07T08:13:08.069Z,9.18
2022-09-07T08:16:13.403Z,7.70
2022-09-07T08:19:16.654Z,9.13
2022-09-07T08:22:20.922Z,6.17
2022-09-07T08:25:25.886Z,10.02
2022-09-07T08:28:32.375Z,10.30
2022-09-07T08:31:35.767Z,5.72
2022-09-07T08:34:39.805Z,9.23
2022-09-07T08:37:43.434Z,9.77
2022-09-07T08:40:48.043Z,10.07
2022-09-07T08:44:00.411Z,10.68
2022-09-07T08:47:24.375Z,9.00
2022-09-07T08:50:34.269Z,12.30
2022-09-07T08:53:45.909Z,12.20
2022-09-07T09:00:19.765Z,10.18
2022-09-07T09:03:33.128Z,13.32
2022-09-07T09:07:04.754Z,12.10
2022-09-07T09:10:08.181Z,10.93
2022-09-07T09:13:32.052Z,11.70
2022-09-07T09:16:44.434Z,13.27
2022-09-07T09:19:59.397Z,13.18
2022-09-07T09:23:12.895Z,12.50
2022-09-07T09:26:24.460Z,7.03
2022-09-07T09:29:29.115Z,7.57
2022-09-07T09:32:44.567Z,11.68
2022-09-07T09:35:53.600Z,6.97
2022-09-07T09:38:58.063Z,12.57
2022-09-07T09:42:17.704Z,7.27
2022-09-07T09:46:12.234Z,8.13
2022-09-07T09:49:01.292Z,6.50
2022-09-07T09:52:29.677Z,10.75
2022-09-07T09:55:38.966Z,13.10
2022-09-07T10:06:02.033Z,5.10
2022-09-07T10:09:15.705Z,6.90
2022-09-07T10:12:33.704Z,6.57
2022-09-07T10:15:42.376Z,6.80
2022-09-07T10:19:00.408Z,13.55
2022-09-07T10:22:39.638Z,11.75
2022-09-07T10:26:29.927Z,13.68
2022-09-07T10:29:37.711Z,14.33
2022-09-07T10:33:21.548Z,14.93
2022-09-07T10:36:46.728Z,14.18
2022-09-07T10:40:44.806Z,9.45
2022-09-07T10:43:50.704Z,15.45
2022-09-07T10:47:11.830Z,16.63
2022-09-07T10:50:50.946Z,77.63
2022-09-07T10:54:30.977Z,32.78
2022-09-07T10:59:07.100Z,18.13
2022-09-07T11:07:30.554Z,10.17
2022-09-07T11:11:02.226Z,11.67
2022-09-07T11:14:50.048Z,5.97
2022-09-07T11:18:29.109Z,8.98
2022-09-07T11:22:00.278Z,11.20
2022-09-07T11:25:31.365Z,10.03
2022-09-07T11:33:06.377Z,8.68
2022-09-07T11:36:24.239Z,11.95
2022-09-07T11:40:07.634Z,9.70
2022-09-07T11:43:45.865Z,10.23
2022-09-07T11:46:57.008Z,9.07
2022-09-07T11:50:04.150Z,8.25
2022-09-07T11:53:27.303Z,10.68
2022-09-07T11:57:01.044Z,9.50
2022-09-07T12:00:12.936Z,12.13
2022-09-07T12:03:38.062Z,11.43
2022-09-07T12:07:14.127Z,9.38
2022-09-07T12:10:48.086Z,9.48
2022-09-07T12:14:18.473Z,37.03
2022-09-07T12:17:48.457Z,14.73
2022-09-07T12:20:57.394Z,11.30
2022-09-07T12:24:02.741Z,12.00
2022-09-07T12:27:13.761Z,13.65
2022-09-07T12:31:06.555Z,13.73
2022-09-07T12:34:36.658Z,15.07
2022-09-07T12:38:09.927Z,11.73
2022-09-07T12:45:57.585Z,8.80
2022-09-07T12:49:28.171Z,14.13
2022-09-07T12:52:52.533Z,8.83
2022-09-07T12:56:16.309Z,8.97
2022-09-07T13:00:08.053Z,9.98
2022-09-07T13:07:34.529Z,11.75
2022-09-07T13:10:45.154Z,5.50
2022-09-07T13:14:19.953Z,68.50
2022-09-07T13:17:45.703Z,6.30
2022-09-07T13:21:09.804Z,6.70
2022-09-07T13:27:55.751Z,5.03
2022-09-07T13:31:27.915Z,8.70
2022-09-07T13:34:35.617Z,6.70
2022-09-07T13:37:53.410Z,5.63
2022-09-07T13:41:06.140Z,3.97
2022-09-07T13:44:39.903Z,3.50
2022-09-07T13:47:55.769Z,6.57
2022-09-07T13:51:42.694Z,4.90
2022-09-07T13:54:54.535Z,4.25
2022-09-07T13:58:20.425Z,5.05
2022-09-07T14:01:27.058Z,4.77
2022-09-07T14:04:44.071Z,6.80
2022-09-07T14:07:48.634Z,5.53
2022-09-07T14:10:52.604Z,4.97
2022-09-07T14:14:19.305Z,7.03
2022-09-07T14:17:24.588Z,7.33
2022-09-07T14:20:29.030Z,7.33
2022-09-07T14:23:35.867Z,6.60
2022-09-07T14:26:48.268Z,7.03
2022-09-07T14:29:52.283Z,5.90
2022-09-07T14:33:03.763Z,5.63
2022-09-07T14:36:29.445Z,6.27
2022-09-07T14:39:39.254Z,6.45
2022-09-07T14:42:43.889Z,5.30
2022-09-07T14:45:47.673Z,6.32
2022-09-07T14:48:55.319Z,6.87
2022-09-07T14:52:00.801Z,5.37
2022-09-07T14:55:28.610Z,5.15
2022-09-07T14:58:32.903Z,5.78
2022-09-07T15:01:37.718Z,5.63
2022-09-07T15:04:41.157Z,5.63
2022-09-07T15:07:55.329Z,6.10
2022-09-07T15:11:39.989Z,6.78
2022-09-07T15:14:43.647Z,4.10
2022-09-07T15:17:47.639Z,3.75
2022-09-07T15:20:52.900Z,3.93
2022-09-07T15:23:59.050Z,4.00
2022-09-07T15:27:03.836Z,9.88
2022-09-07T15:30:10.344Z,5.53
2022-09-07T15:33:14.373Z,5.32
2022-09-07T15:36:19.121Z,3.13
2022-09-07T15:39:28.799Z,7.93
2022-09-07T15:45:56.828Z,5.80
2022-09-07T15:49:01.668Z,7.28
2022-09-07T15:52:05.837Z,4.57
2022-09-07T15:55:10.300Z,6.90
2022-09-07T15:58:14.431Z,4.57
2022-09-07T16:04:42.223Z,7.05
2022-09-07T16:11:28.377Z,3.97
2022-09-07T16:14:35.090Z,7.05
2022-09-07T16:17:47.247Z,5.68
2022-09-07T16:20:53.680Z,5.78
2022-09-07T16:23:57.232Z,6.77
2022-09-07T16:27:01.585Z,6.00
2022-09-07T16:30:06.715Z,11.82
2022-09-07T16:33:10.659Z,8.55
2022-09-07T16:36:16.536Z,6.32
2022-09-07T16:39:20.190Z,4.87
2022-09-07T16:42:23.986Z,5.70
2022-09-07T16:48:52.365Z,8.40
2022-09-07T16:51:56.082Z,8.43
2022-09-07T16:54:59.779Z,8.50
2022-09-07T17:01:29.697Z,6.15
2022-09-07T17:04:33.702Z,5.57
2022-09-07T17:07:37.662Z,6.93
2022-09-07T17:10:41.401Z,5.80
2022-09-07T17:13:46.126Z,6.10
2022-09-07T17:16:49.971Z,5.25
2022-09-07T17:19:53.938Z,5.38
2022-09-07T17:22:57.630Z,6.07
2022-09-07T17:26:15.797Z,5.37
2022-09-07T17:29:18.955Z,4.03
2022-09-07T17:32:24.571Z,3.78
2022-09-07T17:35:30.764Z,3.38
2022-09-07T17:42:02.857Z,5.17
2022-09-07T17:45:08.706Z,4.53
2022-09-07T17:48:11.787Z,3.70
2022-09-07T17:51:17.142Z,5.97
2022-09-07T17:54:20.262Z,3.95
2022-09-07T17:57:24.784Z,6.33
2022-09-07T18:00:28.026Z,6.80
2022-09-07T18:03:36.005Z,3.72
2022-09-07T18:06:40.300Z,3.28
2022-09-07T18:09:44.681Z,3.00
2022-09-07T18:12:48.172Z,3.20
2022-09-07T18:15:52.769Z,3.67
2022-09-07T18:18:59.971Z,3.05
2022-09-07T18:22:04.979Z,2.38
2022-09-07T18:25:10.367Z,3.10
2022-09-07T18:31:39.689Z,9.27
2022-09-07T18:34:48.271Z,15.25
2022-09-07T18:37:54.541Z,10.10
2022-09-07T18:41:12.538Z,9.48
2022-09-07T18:47:41.052Z,11.27
2022-09-07T18:50:44.411Z,10.63
2022-09-07T18:53:48.488Z,12.18
2022-09-07T18:56:51.658Z,9.95
2022-09-07T18:59:55.455Z,7.30
2022-09-07T19:02:59.729Z,10.23
2022-09-07T19:06:14.193Z,6.30
2022-09-07T19:09:18.008Z,7.68
2022-09-07T19:12:21.769Z,6.60
2022-09-07T19:15:24.824Z,8.87
2022-09-07T19:18:28.446Z,7.67
2022-09-07T19:21:37.865Z,7.05
2022-09-07T19:24:41.611Z,9.40
2022-09-07T19:27:44.935Z,7.70
2022-09-07T19:30:48.785Z,8.83
2022-09-07T19:33:59.646Z,6.57
2022-09-07T19:37:04.718Z,7.28
2022-09-07T19:40:14.761Z,6.70
2022-09-07T19:43:22.190Z,7.85
2022-09-07T19:46:26.341Z,6.47
2022-09-07T19:49:31.134Z,5.17
2022-09-07T19:52:35.177Z,3.80
2022-09-07T19:55:38.555Z,6.20
2022-09-07T19:58:44.260Z,9.38
2022-09-07T20:01:49.936Z,5.57
2022-09-07T20:04:53.274Z,4.33
2022-09-07T20:07:56.932Z,4.22
2022-09-07T20:11:05.764Z,3.65
2022-09-07T20:14:09.496Z,4.30
2022-09-07T20:17:13.183Z,3.30
2022-09-07T20:20:17.127Z,3.43
2022-09-07T20:23:21.785Z,3.83
2022-09-07T20:26:25.120Z,4.68
2022-09-07T20:29:29.260Z,3.95
2022-09-07T20:32:34.253Z,3.87
2022-09-07T20:35:38.511Z,3.93
2022-09-07T20:38:47.701Z,3.70
2022-09-07T20:41:50.841Z,5.60
2022-09-07T20:44:55.299Z,5.07
2022-09-07T20:47:59.025Z,6.30
2022-09-07T20:51:04.702Z,6.07
2022-09-07T20:54:08.016Z,4.22
2022-09-07T20:57:11.695Z,5.63
2022-09-07T21:00:15.438Z,5.70
2022-09-07T21:03:19.532Z,5.73
2022-09-07T21:06:25.137Z,5.63
2022-09-07T21:09:28.134Z,4.78
2022-09-07T21:12:32.483Z,7.07
2022-09-07T21:15:40.710Z,4.32
2022-09-07T21:18:45.094Z,4.83
2022-09-07T21:21:48.835Z,6.03
2022-09-07T21:24:52.997Z,5.93
2022-09-07T21:27:56.335Z,5.60
2022-09-07T21:31:10.167Z,7.63
2022-09-07T21:34:14.597Z,4.83
2022-09-07T21:37:17.555Z,7.37
2022-09-07T21:40:21.332Z,8.98
2022-09-07T21:43:25.226Z,10.82
2022-09-07T21:46:30.661Z,9.68
2022-09-07T21:49:35.117Z,13.37
2022-09-07T21:52:39.473Z,14.57
2022-09-07T21:55:43.085Z,12.75
2022-09-07T21:58:46.912Z,14.95
2022-09-07T22:01:50.779Z,18.65
2022-09-07T22:04:53.694Z,10.80
2022-09-07T22:07:57.692Z,15.80
2022-09-07T22:11:10.547Z,13.18
2022-09-07T22:14:14.297Z,13.30
2022-09-07T22:17:18.102Z,22.45
2022-09-07T22:20:22.376Z,11.73
2022-09-07T22:23:25.509Z,12.23
2022-09-07T22:26:31.816Z,8.05
2022-09-07T22:29:35.515Z,13.10
2022-09-07T22:32:38.828Z,15.70
2022-09-07T22:35:42.536Z,11.43
2022-09-07T22:38:47.449Z,12.70
2022-09-07T22:41:51.040Z,25.63
2022-09-07T22:44:55.726Z,23.20
2022-09-07T22:47:59.428Z,23.02
2022-09-07T22:51:04.039Z,20.20
2022-09-07T22:54:07.178Z,33.17
2022-09-07T22:57:11.400Z,28.35
2022-09-07T23:00:14.675Z,25.02
2022-09-07T23:03:19.392Z,26.52
2022-09-07T23:06:31.270Z,22.90
2022-09-07T23:09:35.109Z,24.23
2022-09-07T23:12:40.862Z,24.13
2022-09-07T23:15:44.804Z,21.40
2022-09-07T23:18:47.902Z,29.02
2022-09-07T23:21:51.997Z,34.57
2022-09-07T23:24:55.232Z,27.23
2022-09-07T23:27:59.312Z,23.90
2022-09-07T23:31:02.658Z,24.83
2022-09-07T23:34:06.925Z,25.95
2022-09-07T23:37:11.503Z,32.80
2022-09-07T23:40:15.296Z,23.57
2022-09-07T23:43:18.241Z,20.52
2022-09-07T23:46:22.134Z,23.50
2022-09-07T23:49:26.213Z,22.30
2022-09-07T23:52:29.854Z,23.50
2022-09-07T23:55:33.986Z,14.63
2022-09-07T23:58:37.704Z,15.52
